Alpena, Arkansas
Current Conditions -  °F | °C
As of 12:53 PM on Friday 24 Oct 2014 (Local Time) from KHRO Reporting Station
Scattered Clouds Scattered Clouds  
Wind Chill: 74°   Ceiling: Unl
Heat Index: 74°   Visibility: 10mi
Dew Point: 58°   Wind: 5mph
Humidity: 57%   Direction: 190°S
Pressure: 30.13"   Gusts: NA
Location:  36.29°N, 93.29°W
Report Text: KHRO 241753Z AUTO 19004KT 10SM SCT040 23/14 A3013 RMK AO2 SLP195 T02330144 10233 20089 58007
Loading
Personal Weather Stations






























Interactive Weather Map
Tropical Storm Tracking
New forecast layout! Learn more

10-Day Weather Forecast

Advertisements
Track Severe Weather on mobile